HZE weather

Mercer County Regional Airport
Hazen, North Dakota, United States

Public forecast

Using degrees Fahrenheit for public forecast. Weather courtesy of forecast.io.

Current aviation weather report (METAR) for Mercer County Regional Airport

Retrieved 2020/05/30 05:15 UTC (23 minutes ago):

KHZE 300515Z AUTO 08004KT 10SM FEW046 09/05 A3029 RMK AO2

Closest aviation forecast (TAF) to Mercer County Regional Airport

Closest forecast is Bismarck Municipal Airport, 46.2 nm (85.5 km) SE. Retrieved 2020-05-30 00:22 UTC (5 hours ago):

TAF KBIS 292320Z 3000/3024 VRB05KT P6SM SCT150 FM301500 12010KT P6SM FEW200 FM302100 14011G19KT P6SM FEW090